Time;durP1;ratioP1;P1;durP2;ratioP2;P2;SDS_P1;SDS_P2;PMS_P1;PMS_P2;Temp;Humidity;BMP_temperature;BMP_pressure;BME280_temperature;BME280_humidity;BME280_pressure;Samples;Min_cycle;Max_cycle;Signal;HPM_P1;HPM_P2
2022/10/28 00:04:18;;;;;;;14.25;7.88;;;;;;;14.89;100.00;101636.44;10379023;28;20037;-65
2022/10/28 00:09:18;;;;;;;14.60;8.75;;;;;;;14.78;100.00;101632.47;10377249;28;20494;-65
2022/10/28 00:14:19;;;;;;;13.00;8.07;;;;;;;14.71;100.00;101628.91;10378029;28;20045;-66
2022/10/28 00:19:19;;;;;;;13.85;8.93;;;;;;;14.69;100.00;101627.41;10377330;28;20488;-65
2022/10/28 00:24:19;;;;;;;22.42;8.88;;;;;;;14.61;100.00;101626.56;10379118;28;20045;-66
2022/10/28 00:29:20;;;;;;;21.45;8.65;;;;;;;14.54;100.00;101642.03;10379137;28;20045;-66
2022/10/28 00:34:21;;;;;;;14.25;9.52;;;;;;;14.49;100.00;101647.25;10377423;28;20034;-65
2022/10/28 00:39:23;;;;;;;16.15;7.70;;;;;;;14.41;100.00;101640.09;10377727;28;20060;-65
2022/10/28 00:44:39;;;;;;;16.25;7.75;;;;;;;14.30;100.00;101637.13;10376812;28;20053;-67
2022/10/28 00:49:39;;;;;;;11.90;8.70;;;;;;;14.22;100.00;101629.97;10378145;28;20037;-66
2022/10/28 00:54:39;;;;;;;12.77;8.82;;;;;;;14.10;100.00;101631.59;10359371;28;20091;-66
2022/10/28 00:59:42;;;;;;;16.55;9.32;;;;;;;14.04;100.00;101632.41;10360014;28;20037;-67
2022/10/28 01:04:43;;;;;;;8.80;7.20;;;;;;;14.01;100.00;101613.72;10376787;28;20072;-66
2022/10/28 01:09:43;;;;;;;11.48;8.63;;;;;;;14.02;100.00;101620.88;10375457;28;20092;-66
2022/10/28 01:14:46;;;;;;;14.07;8.10;;;;;;;14.03;100.00;101615.22;10375760;28;20037;-66
2022/10/28 01:20:05;;;;;;;16.55;8.65;;;;;;;13.99;100.00;101605.78;10376803;28;20422;-66
2022/10/28 01:25:29;;;;;;;12.38;7.72;;;;;;;13.94;100.00;101611.84;10375551;28;20144;-66
2022/10/28 01:30:41;;;;;;;14.77;7.80;;;;;;;13.94;100.00;101608.25;10376272;28;20100;-66
2022/10/28 01:35:51;;;;;;;17.58;9.45;;;;;;;13.91;100.00;101609.53;10373809;28;20437;-66
2022/10/28 01:40:57;;;;;;;11.23;9.13;;;;;;;13.82;100.00;101591.69;10358281;28;20033;-66
2022/10/28 01:45:58;;;;;;;12.13;8.30;;;;;;;13.75;100.00;101596.22;10357724;28;20041;-67
2022/10/28 01:51:03;;;;;;;22.27;9.10;;;;;;;13.73;100.00;101598.34;10374716;28;20032;-68
2022/10/28 01:56:06;;;;;;;17.70;10.38;;;;;;;13.72;100.00;101583.88;10358631;28;20038;-66
2022/10/28 02:01:08;;;;;;;14.90;8.45;;;;;;;13.72;100.00;101581.16;10357278;28;20092;-66
2022/10/28 02:06:17;;;;;;;9.30;8.40;;;;;;;13.67;100.00;101572.75;10357125;28;20506;-66
2022/10/28 02:11:21;;;;;;;19.33;8.95;;;;;;;13.67;100.00;101590.97;10374330;28;20029;-66
2022/10/28 02:16:43;;;;;;;12.82;9.70;;;;;;;13.64;100.00;101578.59;10374470;28;20048;-66
2022/10/28 02:21:49;;;;;;;11.75;7.65;;;;;;;13.72;100.00;101581.16;10375505;28;20025;-67
2022/10/28 02:26:53;;;;;;;10.93;8.38;;;;;;;13.73;100.00;101571.94;10375247;28;20056;-66
2022/10/28 02:32:20;;;;;;;16.83;9.15;;;;;;;13.84;100.00;101584.13;10373030;28;20041;-65
2022/10/28 02:37:25;;;;;;;13.35;9.38;;;;;;;13.89;100.00;101581.66;10370360;28;20041;-66
2022/10/28 02:42:27;;;;;;;18.02;9.32;;;;;;;13.92;100.00;101580.41;10372823;28;20038;-66
2022/10/28 02:47:30;;;;;;;19.58;9.18;;;;;;;13.95;100.00;101571.84;10372311;28;20037;-65
2022/10/28 02:52:30;;;;;;;16.85;8.90;;;;;;;13.98;100.00;101557.81;10355835;28;20113;-66
2022/10/28 02:57:33;;;;;;;15.52;9.77;;;;;;;14.04;100.00;101553.41;10372605;28;20104;-66
2022/10/28 03:02:33;;;;;;;19.45;9.85;;;;;;;14.09;100.00;101542.75;10340022;28;20097;-65
2022/10/28 03:07:34;;;;;;;14.10;8.73;;;;;;;14.07;100.00;101556.59;10378657;28;20034;-66
2022/10/28 03:12:34;;;;;;;18.15;10.05;;;;;;;13.97;100.00;101547.94;10378225;28;20049;-66
2022/10/28 03:17:34;;;;;;;14.85;7.78;;;;;;;13.91;100.00;101557.78;10372989;28;20481;-66
2022/10/28 03:22:35;;;;;;;12.30;8.15;;;;;;;13.86;100.00;101554.00;10383544;28;20057;-66
2022/10/28 03:27:38;;;;;;;23.02;10.05;;;;;;;13.94;100.00;101559.25;10386559;28;20046;-67
2022/10/28 03:32:41;;;;;;;18.08;8.10;;;;;;;13.89;100.00;101550.88;10384824;28;20394;-66
2022/10/28 03:37:42;;;;;;;18.70;8.95;;;;;;;13.86;100.00;101551.28;10382566;28;20034;-67
2022/10/28 03:42:42;;;;;;;12.35;8.02;;;;;;;13.83;100.00;101551.69;10381274;28;20121;-66
2022/10/28 03:47:43;;;;;;;10.48;8.25;;;;;;;13.84;100.00;101558.78;10382716;28;20037;-66
2022/10/28 03:52:43;;;;;;;8.75;7.57;;;;;;;13.84;100.00;101545.19;10380189;28;20041;-66
2022/10/28 03:57:44;;;;;;;24.92;9.80;;;;;;;13.90;100.00;101530.75;10380548;28;20046;-67
2022/10/28 04:02:51;;;;;;;24.02;9.20;;;;;;;13.93;100.00;101525.75;10379941;28;20046;-66
2022/10/28 04:07:52;;;;;;;13.70;7.80;;;;;;;13.96;100.00;101532.66;10378601;28;20470;-66
2022/10/28 04:13:03;;;;;;;17.20;7.57;;;;;;;13.91;100.00;101529.72;10360973;28;20052;-67
2022/10/28 04:18:03;;;;;;;31.60;9.18;;;;;;;14.03;100.00;101522.63;10379294;28;20488;-67
2022/10/28 04:23:04;;;;;;;13.60;7.25;;;;;;;14.13;100.00;101524.97;10376397;28;20038;-65
2022/10/28 04:28:04;;;;;;;23.65;8.63;;;;;;;14.10;100.00;101518.06;10377321;28;20040;-67
2022/10/28 04:33:04;;;;;;;13.63;7.50;;;;;;;14.09;100.00;101520.97;10379023;28;20520;-67
2022/10/28 04:38:05;;;;;;;14.05;6.68;;;;;;;14.05;100.00;101536.06;10377275;28;20074;-66
2022/10/28 04:43:05;;;;;;;13.35;7.47;;;;;;;13.93;100.00;101550.25;10377697;28;20029;-66
2022/10/28 04:48:06;;;;;;;14.18;7.82;;;;;;;13.91;100.00;101557.78;10376890;28;20076;-66
2022/10/28 04:53:06;;;;;;;18.70;8.25;;;;;;;13.93;100.00;101523.03;10377090;28;20129;-66
2022/10/28 04:58:06;;;;;;;12.57;7.43;;;;;;;13.90;100.00;101528.88;10360041;28;20034;-66
2022/10/28 05:03:07;;;;;;;12.60;8.13;;;;;;;14.00;100.00;101528.47;10376344;28;20064;-66
2022/10/28 05:08:07;;;;;;;9.30;6.97;;;;;;;13.99;100.00;101515.09;10376959;28;20112;-66
2022/10/28 05:13:07;;;;;;;12.65;8.30;;;;;;;13.96;100.00;101516.31;10376597;28;20034;-66
2022/10/28 05:18:08;;;;;;;20.00;7.97;;;;;;;13.86;100.00;101521.31;10374792;28;20034;-67
2022/10/28 05:23:08;;;;;;;18.33;7.97;;;;;;;13.85;100.00;101534.09;10375766;28;20038;-66
2022/10/28 05:28:09;;;;;;;11.07;7.18;;;;;;;13.91;100.00;101532.44;10377687;28;20050;-66
2022/10/28 05:33:09;;;;;;;8.52;6.72;;;;;;;13.94;100.00;101530.16;10375687;28;20042;-66
2022/10/28 05:38:10;;;;;;;17.77;8.98;;;;;;;13.96;100.00;101516.31;10374408;28;20041;-66
2022/10/28 05:43:10;;;;;;;14.93;6.32;;;;;;;13.92;100.00;101509.63;10375148;28;20442;-66
2022/10/28 05:48:11;;;;;;;29.77;8.70;;;;;;;14.00;100.00;101514.03;10375741;28;20034;-67
2022/10/28 05:53:11;;;;;;;16.60;7.75;;;;;;;14.09;100.00;101508.19;10321336;28;20503;-68
2022/10/28 05:58:11;;;;;;;34.28;8.95;;;;;;;14.11;100.00;101514.28;10375412;28;20038;-67
2022/10/28 06:03:12;;;;;;;18.73;9.23;;;;;;;14.10;100.00;101500.84;10373679;28;20115;-66
2022/10/28 06:08:12;;;;;;;19.55;9.73;;;;;;;14.12;100.00;101501.50;10373620;28;20049;-68
2022/10/28 06:13:12;;;;;;;14.65;7.90;;;;;;;14.13;100.00;101501.28;10375085;28;20167;-68
2022/10/28 06:18:13;;;;;;;16.17;7.63;;;;;;;14.16;100.00;101498.16;10374480;28;20041;-68
2022/10/28 06:23:13;;;;;;;21.65;6.97;;;;;;;14.12;100.00;101498.78;10375506;28;20101;-67
2022/10/28 06:28:14;;;;;;;17.80;8.25;;;;;;;14.14;100.00;101491.25;10357654;28;20044;-68
2022/10/28 06:33:14;;;;;;;15.63;7.97;;;;;;;14.17;100.00;101502.56;10357793;28;20480;-68
2022/10/28 06:38:14;;;;;;;16.10;6.80;;;;;;;14.23;100.00;101495.47;10357678;28;20042;-67
2022/10/28 06:43:15;;;;;;;20.13;9.30;;;;;;;14.28;100.00;101503.84;10372301;28;20034;-68
2022/10/28 06:48:15;;;;;;;18.92;8.02;;;;;;;14.43;100.00;101498.19;10374053;28;20046;-68
2022/10/28 06:53:16;;;;;;;24.15;7.35;;;;;;;14.58;100.00;101508.91;10373458;28;20049;-67
2022/10/28 06:58:16;;;;;;;11.02;6.97;;;;;;;14.72;100.00;101513.34;10381741;28;20126;-69
2022/10/28 07:03:17;;;;;;;16.25;8.00;;;;;;;14.86;100.00;101511.44;10380808;28;20037;-66
2022/10/28 07:08:18;;;;;;;15.65;8.23;;;;;;;15.02;100.00;101521.06;10364440;28;20026;-66
2022/10/28 07:13:18;;;;;;;15.27;7.63;;;;;;;15.22;100.00;101529.22;10380153;28;20038;-67
2022/10/28 07:18:19;;;;;;;15.27;7.07;;;;;;;15.33;100.00;101523.94;10380335;28;20125;-66
2022/10/28 07:23:20;;;;;;;19.58;7.80;;;;;;;15.40;100.00;101517.63;10378956;28;20073;-66
2022/10/28 07:28:21;;;;;;;19.17;8.35;;;;;;;15.53;100.00;101531.22;10379321;28;20034;-66
2022/10/28 07:33:21;;;;;;;13.38;8.35;;;;;;;15.64;100.00;101541.50;10362778;28;20069;-67
2022/10/28 07:38:22;;;;;;;16.63;6.63;;;;;;;15.67;100.00;101537.53;10379570;28;20049;-67
2022/10/28 07:43:22;;;;;;;12.13;5.97;;;;;;;15.70;100.00;101534.38;10380043;28;20037;-67
2022/10/28 07:48:23;;;;;;;10.38;5.78;;;;;;;15.75;100.00;101549.03;10380700;28;20045;-67
2022/10/28 07:53:23;;;;;;;8.43;5.75;;;;;;;15.82;100.00;101540.81;10378904;28;20037;-66
2022/10/28 07:58:23;;;;;;;9.25;5.40;;;;;;;15.94;100.00;101536.34;10379705;28;20037;-67
2022/10/28 08:03:25;;;;;;;7.28;5.28;;;;;;;16.16;100.00;101539.59;10378568;28;20069;-68
2022/10/28 08:08:26;;;;;;;24.13;6.32;;;;;;;16.42;100.00;101530.41;10379089;28;20060;-66
2022/10/28 08:13:26;;;;;;;26.50;6.03;;;;;;;16.88;100.00;101531.13;10378067;28;20371;-66
2022/10/28 08:18:26;;;;;;;7.63;6.38;;;;;;;17.27;100.00;101537.28;10378362;28;20042;-66
2022/10/28 08:23:27;;;;;;;23.55;6.38;;;;;;;17.50;100.00;101545.66;10378044;28;20038;-69
2022/10/28 08:28:28;;;;;;;12.70;4.70;;;;;;;17.49;100.00;101534.94;10377839;28;20030;-67
2022/10/28 08:33:31;;;;;;;15.63;6.88;;;;;;;17.34;100.00;101540.78;10378257;28;20038;-66
2022/10/28 08:38:31;;;;;;;10.80;5.28;;;;;;;17.33;100.00;101541.88;10376932;28;20072;-65
2022/10/28 08:43:47;;;;;;;6.38;4.40;;;;;;;17.25;100.00;101534.75;10377771;28;20508;-66
2022/10/28 08:48:47;;;;;;;7.70;6.75;;;;;;;17.25;100.00;101536.66;10377898;28;20034;-66
2022/10/28 08:53:58;;;;;;;12.02;6.72;;;;;;;17.57;100.00;101532.72;10376100;28;20437;-66
2022/10/28 08:59:00;;;;;;;22.23;7.45;;;;;;;17.80;100.00;101537.53;10376752;28;20041;-66
2022/10/28 09:04:01;;;;;;;11.20;5.38;;;;;;;18.47;100.00;101540.19;10359842;28;20113;-65
2022/10/28 09:09:01;;;;;;;10.65;6.25;;;;;;;19.20;100.00;101527.16;10358877;28;20041;-67
2022/10/28 09:14:23;;;;;;;16.98;6.18;;;;;;;19.67;96.39;101541.69;10375099;28;20041;-66
2022/10/28 09:19:31;;;;;;;19.50;6.25;;;;;;;20.19;96.01;101541.63;10375477;28;20037;-66
2022/10/28 09:24:45;;;;;;;15.48;6.90;;;;;;;20.60;96.05;101539.66;10375242;28;20053;-66
2022/10/28 09:29:59;;;;;;;27.40;5.65;;;;;;;21.19;93.99;101527.38;10375202;28;20030;-66
2022/10/28 09:35:05;;;;;;;7.57;4.93;;;;;;;21.43;87.97;101533.53;10375894;28;20124;-65
2022/10/28 09:40:23;;;;;;;9.10;5.77;;;;;;;21.14;84.93;101526.22;10359005;28;20136;-65
2022/10/28 09:45:26;;;;;;;14.73;5.57;;;;;;;21.18;86.13;101529.28;10359184;28;20098;-66
2022/10/28 09:50:28;;;;;;;17.85;5.32;;;;;;;21.41;84.66;101514.50;10373972;28;20041;-66
2022/10/28 09:55:29;;;;;;;19.13;5.43;;;;;;;21.58;84.04;101508.94;10374917;28;20044;-66
2022/10/28 10:00:29;;;;;;;18.33;7.13;;;;;;;22.22;85.84;101500.03;10357684;28;20045;-65
2022/10/28 10:05:30;;;;;;;12.30;5.38;;;;;;;22.63;84.14;101514.22;10374059;28;20084;-68
2022/10/28 10:10:35;;;;;;;15.55;5.15;;;;;;;22.65;80.23;101506.47;10375857;28;20034;-67
2022/10/28 10:15:37;;;;;;;8.88;5.75;;;;;;;22.18;85.45;101532.84;10359289;28;20073;-67
2022/10/28 10:20:59;;;;;;;14.35;4.32;;;;;;;21.97;82.79;101528.13;10357049;28;20037;-66
2022/10/28 10:26:13;;;;;;;10.07;3.95;;;;;;;21.61;82.22;101543.44;10373800;28;20125;-67
2022/10/28 10:31:18;;;;;;;9.45;5.00;;;;;;;21.55;82.98;101537.84;10369234;28;20036;-65
2022/10/28 10:36:22;;;;;;;12.70;5.82;;;;;;;21.41;84.09;101538.44;10387069;28;20381;-65
2022/10/28 10:41:43;;;;;;;11.52;3.80;;;;;;;21.22;84.67;101544.25;10387894;28;20069;-66
2022/10/28 10:46:44;;;;;;;11.85;4.05;;;;;;;21.10;84.29;101547.09;10387657;28;20036;-66
2022/10/28 10:51:51;;;;;;;7.28;5.55;;;;;;;21.01;84.48;101537.59;10373116;28;20484;-66
2022/10/28 10:56:51;;;;;;;8.43;5.00;;;;;;;20.98;85.16;101532.56;10390756;28;20045;-65
2022/10/28 11:01:52;;;;;;;6.20;4.60;;;;;;;21.03;83.47;101549.19;10390207;28;20048;-67
2022/10/28 11:06:56;;;;;;;4.75;4.10;;;;;;;21.15;82.41;101554.56;10390715;28;20457;-66
2022/10/28 11:11:56;;;;;;;9.38;6.03;;;;;;;21.09;83.39;101556.44;10371484;28;20026;-66
2022/10/28 11:17:00;;;;;;;15.57;4.30;;;;;;;20.98;83.44;101565.63;10357968;28;20117;-66
2022/10/28 11:22:19;;;;;;;12.02;4.75;;;;;;;21.04;84.63;101577.56;10375075;28;20032;-67
2022/10/28 11:27:56;;;;;;;5.72;4.45;;;;;;;20.97;85.33;101580.47;10390684;28;20125;-66
2022/10/28 11:33:08;;;;;;;11.77;5.23;;;;;;;20.93;85.06;101572.94;10388478;28;20076;-65
2022/10/28 11:38:15;;;;;;;12.30;6.35;;;;;;;20.97;85.36;101565.88;10386465;28;20077;-66
2022/10/28 11:43:18;;;;;;;10.25;4.90;;;;;;;21.18;84.87;101580.78;10380538;28;20026;-67
2022/10/28 11:48:30;;;;;;;18.67;6.03;;;;;;;21.35;85.23;101576.13;10378778;28;20105;-66
2022/10/28 11:53:35;;;;;;;8.30;4.93;;;;;;;21.17;84.48;101584.63;10380090;28;20373;-65
2022/10/28 11:58:54;;;;;;;5.15;4.70;;;;;;;21.00;86.10;101584.66;10379982;28;20038;-67
2022/10/28 12:04:04;;;;;;;9.15;5.30;;;;;;;21.36;85.87;101592.41;10377810;28;20418;-66
2022/10/28 12:09:10;;;;;;;8.90;4.32;;;;;;;21.29;83.93;101588.97;10378088;28;20127;-67
2022/10/28 12:14:13;;;;;;;13.30;6.70;;;;;;;21.63;85.63;101594.44;10363400;28;20040;-72
2022/10/28 12:19:14;;;;;;;13.32;5.22;;;;;;;22.12;82.14;101593.69;10378880;28;20100;-67
2022/10/28 12:24:16;;;;;;;7.43;4.93;;;;;;;22.18;84.42;101601.78;10378892;28;20053;-68
2022/10/28 12:29:19;;;;;;;9.20;5.45;;;;;;;21.90;82.91;101599.22;10360597;28;20362;-69
2022/10/28 12:34:30;;;;;;;14.20;5.45;;;;;;;21.94;81.47;101622.41;10377866;28;20034;-68
2022/10/28 12:39:33;;;;;;;6.05;4.82;;;;;;;21.90;80.90;101624.84;10378352;28;20073;-68
2022/10/28 12:44:34;;;;;;;10.23;5.18;;;;;;;21.74;83.89;101634.00;10377093;28;20026;-68
2022/10/28 12:49:56;;;;;;;13.52;5.20;;;;;;;21.71;85.76;101631.75;10360695;28;20433;-68
2022/10/28 12:54:56;;;;;;;17.13;4.97;;;;;;;21.57;83.85;101623.88;10376953;28;20081;-67
2022/10/28 13:00:21;;;;;;;13.27;3.78;;;;;;;21.55;83.83;101637.06;10377218;28;20037;-68
2022/10/28 13:05:25;;;;;;;12.93;5.47;;;;;;;21.55;84.09;101639.81;10362753;28;20029;-68
2022/10/28 13:10:38;;;;;;;13.77;4.75;;;;;;;21.79;84.74;101632.16;10345074;28;20120;-65
2022/10/28 13:15:48;;;;;;;11.80;3.88;;;;;;;21.98;83.04;101635.44;10344330;28;20034;-67
2022/10/28 13:20:57;;;;;;;7.65;4.68;;;;;;;21.77;81.59;101661.06;10377673;28;20080;-67
2022/10/28 13:26:09;;;;;;;17.60;5.65;;;;;;;21.62;83.94;101666.34;10376502;28;20057;-68
2022/10/28 13:31:09;;;;;;;9.05;5.03;;;;;;;21.30;85.52;101665.00;10374905;28;20037;-68
2022/10/28 13:36:27;;;;;;;5.40;4.32;;;;;;;21.07;85.54;101666.00;10374582;28;20050;-68
2022/10/28 13:41:54;;;;;;;9.95;4.90;;;;;;;21.01;86.36;101667.00;10375447;28;20084;-68
2022/10/28 13:47:13;;;;;;;12.75;4.28;;;;;;;21.06;86.94;101669.84;10370538;28;20033;-70
2022/10/28 13:52:19;;;;;;;14.35;4.47;;;;;;;20.72;88.42;101674.47;10375811;28;20065;-69
2022/10/28 13:57:32;;;;;;;;;;;;;;;20.59;89.50;101652.75;10374323;28;20112;-69
2022/10/28 14:02:36;;;;;;;18.52;4.50;;;;;;;20.44;90.30;101681.59;10374623;28;20407;-68
2022/10/28 14:07:40;;;;;;;26.73;5.07;;;;;;;20.43;91.07;101676.34;10374626;28;20485;-69
2022/10/28 14:12:43;;;;;;;12.15;5.00;;;;;;;20.40;91.82;101688.66;10375543;28;20108;-68
2022/10/28 14:17:48;;;;;;;12.93;5.28;;;;;;;20.31;91.92;101681.88;10359971;28;20092;-70
2022/10/28 14:22:50;;;;;;;9.70;4.75;;;;;;;20.17;92.59;101686.00;10375615;28;20084;-68
2022/10/28 14:27:50;;;;;;;12.88;4.43;;;;;;;20.05;93.25;101691.50;10374068;28;20137;-68
2022/10/28 14:32:59;;;;;;;15.98;5.32;;;;;;;19.97;93.79;101697.34;10374415;28;20367;-70
2022/10/28 14:38:07;;;;;;;9.70;4.82;;;;;;;19.96;93.86;101691.03;10373420;28;20033;-69
2022/10/28 14:43:26;;;;;;;8.32;3.78;;;;;;;19.92;94.25;101711.84;10373980;28;20026;-67
2022/10/28 14:48:35;;;;;;;9.23;4.63;;;;;;;19.87;94.62;101719.13;10311858;28;20058;-67
2022/10/28 14:53:36;;;;;;;12.00;4.88;;;;;;;19.77;94.54;101713.38;10357155;28;20033;-68
2022/10/28 14:58:41;;;;;;;10.32;6.05;;;;;;;19.72;95.94;101745.19;10373141;28;20120;-68
2022/10/28 15:03:42;;;;;;;16.90;5.75;;;;;;;19.63;96.30;101746.56;10356055;28;20484;-67
2022/10/28 15:08:42;;;;;;;16.08;5.70;;;;;;;19.62;95.91;101736.66;10374666;28;20097;-68
2022/10/28 15:13:43;;;;;;;16.20;4.97;;;;;;;19.52;97.09;101741.88;10356460;28;20030;-67
2022/10/28 15:18:47;;;;;;;9.45;4.35;;;;;;;19.46;96.95;101748.31;10380880;28;20365;-67
2022/10/28 15:24:00;;;;;;;14.02;5.32;;;;;;;19.27;97.82;101758.53;10379603;28;20073;-67
2022/10/28 15:29:01;;;;;;;10.27;4.35;;;;;;;19.00;99.08;101758.09;10379892;28;20037;-68
2022/10/28 15:34:01;;;;;;;15.70;5.30;;;;;;;18.71;100.00;101760.56;10379161;28;20029;-67
2022/10/28 15:39:14;;;;;;;20.70;5.25;;;;;;;18.58;100.00;101756.09;10363256;28;20497;-67
2022/10/28 15:44:26;;;;;;;19.63;5.90;;;;;;;18.43;100.00;101768.50;10363888;28;20119;-67
2022/10/28 15:49:31;;;;;;;13.93;5.40;;;;;;;18.23;100.00;101766.00;10362482;28;20370;-67
2022/10/28 15:54:32;;;;;;;11.82;5.00;;;;;;;18.20;100.00;101781.00;10379439;28;20030;-67
2022/10/28 15:59:32;;;;;;;8.07;3.92;;;;;;;18.14;100.00;101792.88;10379665;28;20088;-67
2022/10/28 16:04:32;;;;;;;12.27;4.15;;;;;;;18.10;100.00;101797.13;10380157;28;20030;-67
2022/10/28 16:09:41;;;;;;;20.70;4.20;;;;;;;18.19;100.00;101804.00;10381381;28;20116;-67
2022/10/28 16:14:43;;;;;;;9.95;3.40;;;;;;;18.26;98.08;101814.91;10378504;28;20034;-67
2022/10/28 16:19:59;;;;;;;12.77;4.57;;;;;;;18.13;97.15;101826.84;10378016;28;20065;-67
2022/10/28 16:25:00;;;;;;;10.13;2.55;;;;;;;17.83;97.51;101824.75;10381862;28;20064;-69
2022/10/28 16:30:00;;;;;;;7.80;3.45;;;;;;;17.63;98.35;101824.03;10380349;28;20389;-67
2022/10/28 16:35:01;;;;;;;7.47;3.10;;;;;;;17.50;98.70;101830.47;10377870;28;20041;-68
2022/10/28 16:40:01;;;;;;;11.70;3.80;;;;;;;17.40;99.38;101852.84;10361559;28;20044;-68
2022/10/28 16:45:03;;;;;;;11.48;3.53;;;;;;;17.26;100.00;101856.72;10377132;28;20030;-68
2022/10/28 16:50:04;;;;;;;13.70;4.35;;;;;;;17.14;100.00;101858.47;10376385;28;20088;-68
2022/10/28 16:55:08;;;;;;;16.58;4.57;;;;;;;17.08;100.00;101851.13;10360724;28;20041;-68
2022/10/28 17:00:11;;;;;;;12.68;4.40;;;;;;;17.00;100.00;101862.31;10344202;28;20130;-68
2022/10/28 17:05:18;;;;;;;7.22;3.78;;;;;;;16.95;100.00;101861.06;10377068;28;20466;-68
2022/10/28 17:10:18;;;;;;;;;;;;;;;16.86;100.00;101872.47;10360413;28;20025;-67
2022/10/28 17:15:19;;;;;;;13.70;4.13;;;;;;;16.74;100.00;101877.72;10375120;28;19913;-67
2022/10/28 17:20:19;;;;;;;15.25;4.55;;;;;;;16.66;100.00;101889.75;10377055;28;20386;-68
2022/10/28 17:25:20;;;;;;;7.85;3.55;;;;;;;16.54;100.00;101907.03;10376278;28;20063;-68
2022/10/28 17:30:20;;;;;;;8.68;3.72;;;;;;;16.44;100.00;101916.50;10376556;28;20076;-67
2022/10/28 17:35:21;;;;;;;14.05;4.85;;;;;;;16.37;100.00;101923.88;10375646;28;20034;-67
2022/10/28 17:40:21;;;;;;;12.10;4.45;;;;;;;16.27;100.00;101935.22;10359870;28;20038;-67
2022/10/28 17:45:22;;;;;;;13.95;4.22;;;;;;;16.21;100.00;101940.69;10377668;28;20450;-68
2022/10/28 17:50:22;;;;;;;17.63;5.57;;;;;;;16.11;100.00;101932.03;10375525;28;20121;-66
2022/10/28 17:55:22;;;;;;;18.27;5.32;;;;;;;16.00;100.00;101939.81;10358300;28;20045;-68
2022/10/28 18:00:24;;;;;;;12.95;6.15;;;;;;;15.92;100.00;101948.22;10375623;28;20390;-67
2022/10/28 18:05:24;;;;;;;21.00;6.32;;;;;;;15.86;100.00;101964.56;10373647;28;20034;-67
2022/10/28 18:10:25;;;;;;;21.38;7.70;;;;;;;15.80;100.00;101966.25;10376329;28;20037;-67
2022/10/28 18:15:25;;;;;;;24.25;6.85;;;;;;;15.78;100.00;101965.63;10374447;28;20478;-67
2022/10/28 18:20:25;;;;;;;13.73;5.10;;;;;;;15.74;100.00;101956.16;10374685;28;20045;-68
2022/10/28 18:25:26;;;;;;;10.13;5.75;;;;;;;15.69;100.00;101947.72;10357489;28;20058;-67
2022/10/28 18:30:26;;;;;;;11.25;4.72;;;;;;;15.66;100.00;101959.88;10374100;28;20050;-68
2022/10/28 18:35:27;;;;;;;18.90;5.05;;;;;;;15.61;100.00;101965.13;10373301;28;20043;-68
2022/10/28 18:40:27;;;;;;;14.68;5.13;;;;;;;15.54;100.00;101973.28;10373361;28;20045;-68
2022/10/28 18:45:28;;;;;;;10.23;4.55;;;;;;;15.50;100.00;101982.06;10373535;28;20038;-67
2022/10/28 18:50:30;;;;;;;19.88;6.70;;;;;;;15.41;100.00;101978.69;10377465;28;20050;-68
2022/10/28 18:55:31;;;;;;;20.60;5.25;;;;;;;15.29;100.00;101972.97;10385479;28;20092;-68
2022/10/28 19:00:33;;;;;;;16.38;5.97;;;;;;;15.22;100.00;101980.28;10385401;28;20092;-67
2022/10/28 19:05:34;;;;;;;21.70;5.22;;;;;;;15.13;100.00;101980.66;10384126;28;20040;-67
2022/10/28 19:10:34;;;;;;;11.88;3.80;;;;;;;15.06;100.00;101991.50;10385603;28;20542;-67
2022/10/28 19:15:40;;;;;;;19.42;5.38;;;;;;;14.96;100.00;101986.41;10384480;28;20033;-67
2022/10/28 19:20:41;;;;;;;18.45;5.88;;;;;;;14.89;100.00;101986.38;10385549;28;20161;-67
2022/10/28 19:25:41;;;;;;;8.27;4.93;;;;;;;14.82;100.00;102006.47;10381516;28;20045;-67
2022/10/28 19:30:42;;;;;;;20.90;4.90;;;;;;;14.76;100.00;101994.47;10381789;28;20066;-68
2022/10/28 19:35:42;;;;;;;15.65;5.35;;;;;;;14.70;100.00;101997.97;10382795;28;20042;-68
2022/10/28 19:40:42;;;;;;;21.42;5.85;;;;;;;14.65;100.00;102012.22;10381125;28;20030;-68
2022/10/28 19:45:43;;;;;;;24.70;7.13;;;;;;;14.64;100.00;102007.81;10364027;28;20454;-68
2022/10/28 19:50:49;;;;;;;16.42;6.05;;;;;;;14.55;100.00;102014.44;10379005;28;20030;-68
2022/10/28 19:55:54;;;;;;;25.92;6.63;;;;;;;14.45;100.00;102016.59;10378899;28;20038;-68
2022/10/28 20:00:58;;;;;;;22.98;9.43;;;;;;;14.39;100.00;102017.41;10360899;28;20061;-67
2022/10/28 20:06:04;;;;;;;21.67;6.88;;;;;;;14.29;100.00;102028.59;10377997;28;20382;-68
2022/10/28 20:11:06;;;;;;;18.77;7.68;;;;;;;14.24;100.00;102038.44;10346842;28;20030;-68
2022/10/28 20:16:11;;;;;;;19.42;6.45;;;;;;;14.14;100.00;102034.13;10379793;28;20030;-68
2022/10/28 20:21:13;;;;;;;15.90;5.97;;;;;;;14.09;100.00;102047.47;10361411;28;20049;-68
2022/10/28 20:26:14;;;;;;;14.15;5.53;;;;;;;14.08;100.00;102044.97;10360553;28;20128;-67
2022/10/28 20:31:16;;;;;;;22.88;6.18;;;;;;;14.05;100.00;102048.91;10377850;28;20042;-67
2022/10/28 20:36:39;;;;;;;18.55;7.13;;;;;;;14.05;100.00;102042.63;10360881;28;20116;-68
2022/10/28 20:41:39;;;;;;;13.13;5.75;;;;;;;14.09;100.00;102060.25;10377923;28;20076;-67
2022/10/28 20:46:40;;;;;;;19.75;6.40;;;;;;;14.08;100.00;102069.47;10377751;28;20073;-68
2022/10/28 20:51:41;;;;;;;31.88;6.95;;;;;;;14.06;100.00;102066.94;10377670;28;20054;-68
2022/10/28 20:56:41;;;;;;;15.10;5.78;;;;;;;14.02;100.00;102070.25;10376528;28;20532;-67
2022/10/28 21:01:42;;;;;;;24.60;8.05;;;;;;;14.04;100.00;102076.31;10377451;28;20464;-68
2022/10/28 21:06:42;;;;;;;27.13;7.15;;;;;;;14.04;100.00;102073.59;10378075;28;20026;-67
2022/10/28 21:11:43;;;;;;;38.83;5.85;;;;;;;14.03;100.00;102072.75;10375627;28;20041;-68
2022/10/28 21:16:43;;;;;;;23.42;5.65;;;;;;;14.07;100.00;102078.66;10359618;28;20465;-67
2022/10/28 21:21:44;;;;;;;15.82;5.55;;;;;;;14.07;100.00;102075.94;10376086;28;20377;-67
2022/10/28 21:26:44;;;;;;;27.40;7.22;;;;;;;14.02;100.00;102076.53;10378733;28;20060;-68
2022/10/28 21:31:44;;;;;;;18.67;7.78;;;;;;;13.88;100.00;102066.50;10375927;28;20033;-68
2022/10/28 21:36:45;;;;;;;22.60;5.78;;;;;;;13.82;100.00;102070.84;10342428;28;20382;-68
2022/10/28 21:41:45;;;;;;;15.95;5.07;;;;;;;13.72;100.00;102082.03;10376169;28;20046;-68
2022/10/28 21:46:47;;;;;;;26.88;6.43;;;;;;;13.57;100.00;102081.19;10376270;28;20125;-68
2022/10/28 21:51:47;;;;;;;20.27;6.50;;;;;;;13.58;100.00;102088.31;10376532;28;20046;-70
2022/10/28 21:56:48;;;;;;;20.55;5.43;;;;;;;13.66;100.00;102085.50;10358088;28;20045;-69
2022/10/28 22:01:49;;;;;;;21.67;5.82;;;;;;;13.62;100.00;102100.50;10374301;28;20034;-68
2022/10/28 22:06:49;;;;;;;29.95;7.15;;;;;;;13.57;100.00;102096.69;10376018;28;20092;-68
2022/10/28 22:11:50;;;;;;;26.50;6.97;;;;;;;13.60;100.00;102105.31;10311720;28;20054;-69
2022/10/28 22:16:50;;;;;;;16.25;5.88;;;;;;;13.55;100.00;102107.75;10373221;28;20038;-68
2022/10/28 22:21:51;;;;;;;21.23;7.38;;;;;;;13.48;100.00;102117.69;10356959;28;20045;-67
2022/10/28 22:26:51;;;;;;;26.95;6.45;;;;;;;13.36;100.00;102108.28;10373024;28;20058;-69
2022/10/28 22:31:52;;;;;;;24.88;7.70;;;;;;;13.28;100.00;102105.69;10373774;28;20049;-68
2022/10/28 22:36:54;;;;;;;21.75;5.50;;;;;;;13.25;100.00;102101.44;10358121;28;20050;-70
2022/10/28 22:41:54;;;;;;;30.65;6.10;;;;;;;13.15;100.00;102098.97;10359538;28;20092;-69
2022/10/28 22:46:55;;;;;;;25.60;6.22;;;;;;;13.03;100.00;102086.84;10372877;28;20401;-67
2022/10/28 22:51:55;;;;;;;15.15;6.57;;;;;;;13.06;100.00;102096.50;10372961;28;20088;-69